Time;durP1;ratioP1;P1;durP2;ratioP2;P2;SDS_P1;SDS_P2;PMS_P1;PMS_P2;Temp;Humidity;BMP_temperature;BMP_pressure;BME280_temperature;BME280_humidity;BME280_pressure;Samples;Min_cycle;Max_cycle;Signal;HPM_P1;HPM_P2
2021/06/29 00:02:08;;;;;;;55.72;33.65;;;18.20;99.90;;;;;;5086561;28;20105;-74
2021/06/29 00:04:34;;;;;;;57.90;33.97;;;18.20;99.90;;;;;;5088397;28;20356;-73
2021/06/29 00:06:59;;;;;;;49.45;33.30;;;18.20;99.90;;;;;;5087584;28;20032;-73
2021/06/29 00:09:25;;;;;;;44.63;30.52;;;18.20;99.90;;;;;;5084817;28;20024;-73
2021/06/29 00:11:50;;;;;;;57.92;33.65;;;18.20;99.90;;;;;;5076498;28;20024;-73
2021/06/29 00:14:16;;;;;;;55.28;33.63;;;18.20;99.90;;;;;;5079584;28;20025;-73
2021/06/29 00:16:42;;;;;;;49.95;32.67;;;18.20;99.90;;;;;;5071224;28;20048;-73
2021/06/29 00:19:07;;;;;;;59.55;34.50;;;18.10;99.90;;;;;;5074056;28;20124;-73
2021/06/29 00:21:33;;;;;;;57.65;34.97;;;18.10;99.90;;;;;;5089766;28;20024;-73
2021/06/29 00:23:58;;;;;;;53.65;33.53;;;18.10;99.90;;;;;;5075196;28;20421;-73
2021/06/29 00:26:24;;;;;;;53.47;34.53;;;18.10;99.90;;;;;;5074830;28;20024;-73
2021/06/29 00:28:50;;;;;;;55.05;34.53;;;18.10;99.90;;;;;;5075342;28;20028;-73
2021/06/29 00:31:15;;;;;;;58.60;34.40;;;18.10;99.90;;;;;;5074318;28;20028;-72
2021/06/29 00:33:41;;;;;;;60.80;35.80;;;18.10;99.90;;;;;;5075126;28;20065;-73
2021/06/29 00:43:38;;;;;;;63.70;34.90;;;18.00;99.90;;;;;;5074463;28;20519;-73
2021/06/29 00:46:04;;;;;;;60.00;33.83;;;18.00;99.90;;;;;;5073792;28;20052;-73
2021/06/29 00:48:29;;;;;;;57.22;33.63;;;18.00;99.90;;;;;;5074764;28;20040;-73
2021/06/29 00:50:55;;;;;;;55.78;32.92;;;18.00;99.90;;;;;;5074413;28;20035;-73
2021/06/29 00:53:21;;;;;;;64.18;34.92;;;18.00;99.90;;;;;;5084979;28;20031;-72
2021/06/29 00:55:47;;;;;;;56.72;33.92;;;18.00;99.90;;;;;;5078073;28;20028;-73
2021/06/29 00:58:13;;;;;;;59.47;33.55;;;17.90;99.90;;;;;;5074154;28;20040;-72
2021/06/29 01:00:41;;;;;;;60.25;33.78;;;18.00;99.90;;;;;;5073993;28;20021;-73
2021/06/29 01:03:08;;;;;;;59.22;34.13;;;17.90;99.90;;;;;;5074581;28;20380;-73
2021/06/29 01:05:33;;;;;;;59.60;35.88;;;17.90;99.90;;;;;;5074276;28;20036;-72
2021/06/29 01:07:59;;;;;;;57.17;33.60;;;17.90;99.90;;;;;;5073642;28;20021;-73
2021/06/29 01:10:25;;;;;;;62.20;35.25;;;17.90;99.90;;;;;;5074624;28;20032;-72
2021/06/29 01:12:51;;;;;;;58.40;33.30;;;17.90;99.90;;;;;;5088293;28;20391;-73
2021/06/29 01:15:24;;;;;;;58.33;33.92;;;17.90;99.90;;;;;;5073612;28;20020;-73
2021/06/29 01:17:54;;;;;;;55.45;34.25;;;17.90;99.90;;;;;;5074567;28;20515;-71
2021/06/29 01:20:28;;;;;;;62.03;36.07;;;17.90;99.90;;;;;;5073536;28;20135;-72
2021/06/29 01:22:57;;;;;;;54.67;33.83;;;17.90;99.90;;;;;;5074383;28;20482;-72
2021/06/29 01:25:26;;;;;;;60.78;35.30;;;17.90;99.90;;;;;;5074257;28;20031;-74
2021/06/29 01:28:08;;;;;;;58.08;34.05;;;17.90;99.90;;;;;;5073571;28;20120;-73
2021/06/29 01:33:20;;;;;;;54.78;33.00;;;17.90;99.90;;;;;;5073805;28;20097;-72
2021/06/29 01:35:45;;;;;;;59.10;32.88;;;17.80;99.90;;;;;;5073361;28;20021;-73
2021/06/29 01:38:16;;;;;;;68.75;34.85;;;17.80;99.90;;;;;;5073447;28;20044;-74
2021/06/29 01:40:41;;;;;;;54.67;32.33;;;17.80;99.90;;;;;;5073888;28;20021;-73
2021/06/29 01:43:07;;;;;;;62.00;33.67;;;17.80;99.90;;;;;;5073253;28;20028;-72
2021/06/29 01:45:33;;;;;;;68.75;35.97;;;17.80;99.90;;;;;;5073608;28;20036;-73
2021/06/29 01:48:01;;;;;;;58.85;33.22;;;17.80;99.90;;;;;;5073440;28;20020;-73
2021/06/29 01:50:27;;;;;;;62.58;31.98;;;17.70;99.90;;;;;;5073106;28;20091;-72
2021/06/29 01:52:55;;;;;;;68.78;33.67;;;17.70;99.90;;;;;;5074024;28;20124;-73
2021/06/29 01:55:21;;;;;;;58.15;33.45;;;17.80;99.90;;;;;;5073260;28;20048;-72
2021/06/29 01:57:48;;;;;;;63.28;33.30;;;17.70;99.90;;;;;;5073112;28;20075;-73
2021/06/29 02:00:14;;;;;;;59.30;34.20;;;17.70;99.90;;;;;;5073253;28;20032;-73
2021/06/29 02:02:40;;;;;;;66.55;35.38;;;17.70;99.90;;;;;;5073006;28;20115;-73
2021/06/29 02:05:06;;;;;;;55.58;32.65;;;17.70;99.90;;;;;;5073139;28;20112;-73
2021/06/29 02:07:32;;;;;;;53.05;31.58;;;17.70;99.90;;;;;;5073644;28;20020;-73
2021/06/29 02:09:57;;;;;;;54.13;31.23;;;17.60;99.90;;;;;;5072727;28;20025;-73
2021/06/29 02:12:23;;;;;;;52.63;31.13;;;17.60;99.90;;;;;;5086088;28;20492;-73
2021/06/29 02:14:49;;;;;;;54.45;30.83;;;17.60;99.90;;;;;;5075148;28;20103;-73
2021/06/29 02:17:14;;;;;;;63.00;31.77;;;17.60;99.90;;;;;;5072308;28;20052;-73
2021/06/29 02:19:40;;;;;;;60.55;30.73;;;17.60;99.90;;;;;;5072895;28;20086;-73
2021/06/29 02:22:06;;;;;;;62.83;32.45;;;17.60;99.90;;;;;;5072771;28;20021;-73
2021/06/29 02:24:32;;;;;;;56.05;30.88;;;17.60;99.90;;;;;;5072743;28;20025;-73
2021/06/29 02:26:58;;;;;;;53.35;30.90;;;17.60;99.90;;;;;;5072658;28;20020;-73
2021/06/29 02:29:24;;;;;;;65.68;34.17;;;17.60;99.90;;;;;;5072907;28;20028;-73
2021/06/29 02:31:49;;;;;;;55.97;30.15;;;17.60;99.90;;;;;;5072365;28;20021;-73
2021/06/29 02:34:15;;;;;;;58.50;31.92;;;17.50;99.90;;;;;;5072552;28;20047;-73
2021/06/29 02:36:41;;;;;;;51.03;31.80;;;17.50;99.90;;;;;;5072697;28;20056;-73
2021/06/29 02:39:06;;;;;;;58.47;30.20;;;17.50;99.90;;;;;;5072021;28;20070;-73
2021/06/29 02:41:32;;;;;;;54.03;29.70;;;17.50;99.90;;;;;;5072214;28;20025;-73
2021/06/29 02:43:57;;;;;;;58.13;31.38;;;17.50;99.90;;;;;;5072516;28;20017;-74
2021/06/29 02:46:23;;;;;;;56.67;28.90;;;17.40;99.90;;;;;;5072200;28;20064;-74
2021/06/29 02:48:49;;;;;;;57.78;30.70;;;17.50;99.90;;;;;;5072438;28;20009;-74
2021/06/29 02:51:15;;;;;;;52.60;29.90;;;17.50;99.90;;;;;;5072252;28;20031;-74
2021/06/29 02:53:41;;;;;;;52.42;30.83;;;17.40;99.90;;;;;;5071877;28;20016;-73
2021/06/29 02:56:36;;;;;;;48.33;29.60;;;17.50;99.90;;;;;;5072229;28;20027;-72
2021/06/29 02:58:52;;;;;;;58.53;29.80;;;17.50;99.90;;;;;;5071595;28;20036;-73
2021/06/29 03:01:17;;;;;;;51.58;28.48;;;17.50;99.90;;;;;;5072176;28;20020;-73
2021/06/29 03:03:43;;;;;;;51.05;28.52;;;17.50;99.90;;;;;;5072174;28;20392;-73
2021/06/29 03:06:08;;;;;;;50.75;29.17;;;17.40;99.90;;;;;;5071418;28;20020;-73
2021/06/29 03:08:34;;;;;;;45.25;27.08;;;17.40;99.90;;;;;;5072358;28;20035;-73
2021/06/29 03:10:59;;;;;;;56.75;26.98;;;17.40;99.90;;;;;;5072464;28;20016;-72
2021/06/29 03:13:25;;;;;;;52.35;27.23;;;17.50;99.90;;;;;;5085197;28;20027;-72
2021/06/29 03:15:50;;;;;;;49.08;26.83;;;17.50;99.90;;;;;;5072152;28;20032;-73
2021/06/29 03:18:18;;;;;;;42.47;24.70;;;17.50;99.90;;;;;;5071205;28;20490;-73
2021/06/29 03:20:43;;;;;;;42.42;26.23;;;17.50;99.90;;;;;;5071427;28;20040;-74
2021/06/29 03:23:09;;;;;;;52.88;26.38;;;17.50;99.90;;;;;;5071807;28;20028;-74
2021/06/29 03:25:34;;;;;;;54.78;28.77;;;17.60;99.90;;;;;;5071713;28;20021;-73
2021/06/29 03:28:00;;;;;;;51.03;27.85;;;17.60;99.90;;;;;;5071804;28;20032;-74
2021/06/29 03:30:25;;;;;;;50.90;27.83;;;17.60;99.90;;;;;;5085232;28;20028;-73
2021/06/29 03:32:51;;;;;;;53.67;28.35;;;17.70;99.90;;;;;;5071519;28;20460;-72
2021/06/29 03:35:16;;;;;;;51.35;27.95;;;17.60;99.90;;;;;;5070896;28;20545;-72
2021/06/29 03:37:42;;;;;;;53.38;28.98;;;17.60;99.90;;;;;;5071590;28;20354;-73
2021/06/29 03:40:08;;;;;;;47.88;27.33;;;17.70;99.90;;;;;;5071014;28;20446;-72
2021/06/29 03:42:33;;;;;;;56.85;30.10;;;17.70;99.90;;;;;;5071242;28;20028;-73
2021/06/29 03:44:59;;;;;;;48.40;28.63;;;17.70;99.90;;;;;;5071381;28;20486;-73
2021/06/29 03:47:27;;;;;;;52.92;30.17;;;17.60;99.90;;;;;;5071288;28;20040;-74
2021/06/29 03:49:53;;;;;;;51.78;29.48;;;17.60;99.90;;;;;;5071302;28;20407;-74
2021/06/29 03:52:19;;;;;;;53.10;29.98;;;17.60;99.90;;;;;;5070208;28;20498;-73
2021/06/29 03:54:44;;;;;;;55.35;30.10;;;17.60;99.90;;;;;;5071301;28;20123;-72
2021/06/29 03:57:10;;;;;;;58.03;31.65;;;17.60;99.90;;;;;;5071621;28;20044;-72
2021/06/29 03:59:35;;;;;;;64.30;32.17;;;17.60;99.90;;;;;;5071179;28;20512;-72
2021/06/29 04:02:01;;;;;;;54.70;29.60;;;17.50;99.90;;;;;;5070717;28;20074;-73
2021/06/29 04:04:26;;;;;;;55.67;30.23;;;17.50;99.90;;;;;;5070839;28;20025;-71
2021/06/29 04:06:52;;;;;;;60.83;31.67;;;17.60;99.90;;;;;;5071356;28;20096;-72
2021/06/29 04:09:17;;;;;;;60.85;30.85;;;17.60;99.90;;;;;;5070966;28;20084;-73
2021/06/29 04:11:43;;;;;;;57.05;31.58;;;17.50;99.90;;;;;;5078204;28;20031;-73
2021/06/29 04:14:09;;;;;;;55.97;30.17;;;17.60;99.90;;;;;;5078001;28;20024;-73
2021/06/29 04:16:34;;;;;;;58.78;30.63;;;17.60;99.90;;;;;;5075416;28;20384;-72
2021/06/29 04:19:00;;;;;;;59.70;31.48;;;17.60;99.90;;;;;;5080298;28;20369;-73
2021/06/29 04:21:26;;;;;;;49.78;29.75;;;17.60;99.90;;;;;;5070666;28;20029;-72
2021/06/29 04:23:52;;;;;;;60.05;32.30;;;17.70;99.90;;;;;;5079630;28;20028;-72
2021/06/29 04:26:18;;;;;;;50.72;30.95;;;17.70;99.90;;;;;;5076019;28;20119;-74
2021/06/29 04:28:44;;;;;;;56.20;31.02;;;17.70;99.90;;;;;;5070999;28;20031;-72
2021/06/29 04:31:10;;;;;;;47.05;29.52;;;17.70;99.90;;;;;;5070338;28;20027;-74
2021/06/29 04:33:35;;;;;;;60.25;32.35;;;17.70;99.90;;;;;;5076019;28;20028;-74
2021/06/29 04:36:03;;;;;;;54.22;31.50;;;17.80;99.90;;;;;;5079998;28;20412;-74
2021/06/29 04:38:28;;;;;;;58.13;32.78;;;17.80;99.90;;;;;;5070318;28;20032;-72
2021/06/29 04:40:54;;;;;;;53.90;28.35;;;17.80;99.90;;;;;;5071134;28;20024;-74
2021/06/29 04:43:19;;;;;;;55.33;29.70;;;17.80;99.90;;;;;;5070429;28;20020;-73
2021/06/29 04:45:45;;;;;;;55.03;30.63;;;17.80;99.90;;;;;;5070218;28;20045;-72
2021/06/29 04:48:11;;;;;;;60.05;31.60;;;17.80;99.90;;;;;;5070894;28;20048;-73
2021/06/29 04:50:38;;;;;;;55.33;30.55;;;17.80;99.90;;;;;;5070641;28;20008;-72
2021/06/29 04:53:03;;;;;;;61.20;33.67;;;17.80;99.90;;;;;;5070246;28;20267;-73
2021/06/29 04:55:32;;;;;;;46.80;28.52;;;17.90;99.90;;;;;;5070844;28;20096;-72
2021/06/29 04:57:58;;;;;;;58.47;33.53;;;17.90;99.90;;;;;;5070422;28;20384;-72
2021/06/29 05:00:23;;;;;;;61.55;31.50;;;17.90;99.90;;;;;;5070442;28;20029;-73
2021/06/29 05:02:49;;;;;;;51.70;29.88;;;17.90;99.90;;;;;;5071525;28;20024;-72
2021/06/29 05:05:15;;;;;;;54.92;33.38;;;18.00;99.90;;;;;;5074351;28;20040;-73
2021/06/29 05:07:41;;;;;;;53.72;31.77;;;18.00;99.90;;;;;;5073904;28;20082;-72
2021/06/29 05:10:09;;;;;;;55.95;31.38;;;18.00;99.90;;;;;;5074176;28;20079;-72
2021/06/29 05:12:35;;;;;;;50.88;30.00;;;18.10;99.90;;;;;;5087680;28;20028;-72
2021/06/29 05:15:00;;;;;;;62.20;33.85;;;18.10;99.90;;;;;;5074318;28;20027;-72
2021/06/29 05:17:26;;;;;;;48.05;31.83;;;18.10;99.90;;;;;;5074355;28;20112;-73
2021/06/29 05:19:52;;;;;;;52.00;33.22;;;18.20;99.90;;;;;;5073800;28;20064;-72
2021/06/29 05:22:17;;;;;;;51.38;31.65;;;18.30;99.90;;;;;;5074174;28;20024;-73
2021/06/29 05:24:43;;;;;;;50.28;31.45;;;18.30;99.90;;;;;;5074233;28;20131;-72
2021/06/29 05:27:08;;;;;;;58.85;33.63;;;18.40;99.90;;;;;;5073305;28;20027;-72
2021/06/29 05:29:34;;;;;;;56.15;33.50;;;18.40;99.90;;;;;;5084090;28;20146;-73
2021/06/29 05:31:59;;;;;;;51.65;32.20;;;18.60;99.90;;;;;;5091113;28;20027;-73
2021/06/29 05:34:25;;;;;;;56.35;33.17;;;18.60;99.90;;;;;;5091422;28;20110;-72
2021/06/29 05:36:50;;;;;;;55.67;35.38;;;18.70;99.90;;;;;;5091157;28;20023;-72
2021/06/29 05:39:17;;;;;;;64.60;34.40;;;18.70;99.90;;;;;;5091973;28;20427;-72
2021/06/29 05:41:43;;;;;;;60.72;34.63;;;18.80;99.90;;;;;;5089849;28;20735;-73
2021/06/29 05:44:09;;;;;;;66.93;34.75;;;18.80;99.90;;;;;;5092293;28;20028;-72
2021/06/29 05:46:34;;;;;;;68.68;35.17;;;18.80;99.90;;;;;;5090964;28;20110;-73
2021/06/29 05:49:02;;;;;;;69.20;36.80;;;18.80;99.90;;;;;;5089226;28;20200;-72
2021/06/29 05:51:28;;;;;;;65.25;35.17;;;18.70;99.90;;;;;;5092561;28;20020;-72
2021/06/29 05:53:53;;;;;;;58.72;34.08;;;18.70;99.90;;;;;;5090111;28;20040;-72
2021/06/29 05:56:19;;;;;;;62.90;34.45;;;18.60;99.90;;;;;;5091362;28;20032;-72
2021/06/29 05:58:47;;;;;;;64.47;34.67;;;18.50;99.90;;;;;;5087079;28;20055;-74
2021/06/29 06:01:13;;;;;;;59.70;34.30;;;18.40;99.90;;;;;;5088329;28;20484;-74
2021/06/29 06:03:38;;;;;;;55.95;32.28;;;18.40;99.90;;;;;;5086848;28;20078;-74
2021/06/29 06:06:04;;;;;;;57.30;32.03;;;18.40;99.90;;;;;;5086312;28;20694;-72
2021/06/29 06:08:30;;;;;;;72.43;35.15;;;18.30;99.90;;;;;;5078694;28;20047;-71
2021/06/29 06:10:55;;;;;;;63.63;34.05;;;18.30;99.90;;;;;;5072305;28;20021;-75
2021/06/29 06:13:21;;;;;;;59.47;33.72;;;18.30;99.90;;;;;;5073776;28;20020;-73
2021/06/29 06:15:47;;;;;;;59.80;33.33;;;18.30;99.90;;;;;;5083661;28;20020;-73
2021/06/29 06:18:13;;;;;;;63.90;35.28;;;18.30;99.90;;;;;;5074005;28;20036;-72
2021/06/29 06:20:39;;;;;;;58.50;33.33;;;18.30;99.90;;;;;;5072596;28;20032;-73
2021/06/29 06:23:05;;;;;;;59.97;35.42;;;18.30;99.90;;;;;;5077437;28;20044;-74
2021/06/29 06:25:32;;;;;;;63.53;34.80;;;18.30;99.90;;;;;;5072609;28;20021;-73
2021/06/29 06:27:58;;;;;;;64.53;35.25;;;18.30;99.90;;;;;;5077877;28;20037;-75
2021/06/29 06:30:25;;;;;;;75.10;37.30;;;18.40;99.90;;;;;;5071984;28;20032;-74
2021/06/29 06:32:50;;;;;;;76.18;38.38;;;18.40;99.90;;;;;;5072793;28;20108;-74
2021/06/29 06:35:16;;;;;;;73.80;37.72;;;18.40;99.90;;;;;;5074207;28;20513;-73
2021/06/29 06:37:41;;;;;;;72.70;37.03;;;18.40;99.90;;;;;;5082752;28;20029;-73
2021/06/29 06:40:08;;;;;;;76.05;38.78;;;18.40;99.90;;;;;;5075141;28;20107;-73
2021/06/29 06:42:34;;;;;;;79.22;37.67;;;18.50;99.90;;;;;;5071819;28;20111;-74
2021/06/29 06:44:59;;;;;;;76.20;37.28;;;18.40;99.90;;;;;;5077525;28;20095;-73
2021/06/29 06:47:25;;;;;;;78.88;38.28;;;18.50;99.90;;;;;;5071657;28;20065;-72
2021/06/29 06:49:51;;;;;;;77.47;38.47;;;18.50;99.90;;;;;;5087797;28;20016;-73
2021/06/29 06:52:20;;;;;;;83.45;38.33;;;18.60;99.90;;;;;;5089590;28;20371;-72
2021/06/29 06:54:46;;;;;;;80.85;38.92;;;18.60;99.90;;;;;;5085497;28;20127;-73
2021/06/29 06:57:12;;;;;;;82.25;39.47;;;18.60;99.90;;;;;;5071331;28;20143;-74
2021/06/29 06:59:38;;;;;;;76.95;38.85;;;18.70;99.90;;;;;;5076223;28;20375;-74
2021/06/29 07:02:04;;;;;;;85.53;39.85;;;18.70;99.90;;;;;;5071407;28;20029;-73
2021/06/29 07:04:30;;;;;;;79.38;40.78;;;18.70;99.90;;;;;;5076691;28;20885;-75
2021/06/29 07:06:55;;;;;;;77.35;39.05;;;18.80;99.90;;;;;;5070925;28;20150;-74
2021/06/29 07:09:21;;;;;;;83.05;40.13;;;18.70;99.90;;;;;;5071121;28;20102;-74
2021/06/29 07:11:47;;;;;;;84.45;39.85;;;18.70;99.90;;;;;;5079115;28;20371;-75
2021/06/29 07:14:13;;;;;;;82.25;39.47;;;18.70;99.90;;;;;;5078412;28;20036;-74
2021/06/29 07:16:39;;;;;;;75.60;38.22;;;18.70;99.90;;;;;;5074303;28;20053;-75
2021/06/29 07:19:04;;;;;;;80.47;39.33;;;18.70;99.90;;;;;;5071562;28;20102;-75
2021/06/29 07:21:30;;;;;;;76.63;38.92;;;18.70;99.90;;;;;;5072018;28;20099;-74
2021/06/29 07:23:56;;;;;;;78.43;39.33;;;18.70;99.90;;;;;;5071826;28;20403;-74
2021/06/29 07:26:23;;;;;;;73.68;37.30;;;18.70;99.90;;;;;;5071324;28;20686;-74
2021/06/29 07:28:49;;;;;;;66.50;36.63;;;18.70;99.90;;;;;;5072102;28;20035;-74
2021/06/29 07:31:17;;;;;;;76.13;38.47;;;18.70;99.90;;;;;;5072062;28;20025;-72
2021/06/29 07:33:43;;;;;;;76.88;40.08;;;18.70;99.90;;;;;;5071521;28;20029;-75
2021/06/29 07:36:12;;;;;;;77.60;38.72;;;18.80;99.90;;;;;;5071761;28;20047;-74
2021/06/29 07:38:38;;;;;;;81.20;40.78;;;18.90;99.90;;;;;;5078201;28;20039;-74
2021/06/29 07:41:06;;;;;;;85.45;41.85;;;19.00;99.90;;;;;;5085768;28;20045;-74
2021/06/29 07:43:32;;;;;;;86.95;41.30;;;19.10;99.90;;;;;;5074853;28;20032;-75
2021/06/29 07:45:57;;;;;;;86.57;41.17;;;19.30;99.90;;;;;;5074735;28;20044;-75
2021/06/29 07:48:23;;;;;;;87.47;41.60;;;19.40;99.90;;;;;;5085690;28;20035;-75
2021/06/29 07:50:49;;;;;;;91.22;42.42;;;19.50;99.90;;;;;;5080500;28;20016;-73
2021/06/29 07:53:15;;;;;;;82.18;43.03;;;20.00;99.90;;;;;;5078622;28;20058;-74
2021/06/29 07:55:40;;;;;;;86.95;43.45;;;19.80;99.90;;;;;;5080755;28;20020;-74
2021/06/29 07:58:06;;;;;;;84.40;42.35;;;19.90;99.90;;;;;;5099091;28;20031;-73
2021/06/29 08:00:31;;;;;;;80.80;40.40;;;20.10;99.90;;;;;;5100586;28;20476;-73
2021/06/29 08:02:59;;;;;;;79.20;42.80;;;20.20;99.90;;;;;;5097828;28;20025;-74
2021/06/29 08:05:25;;;;;;;78.25;41.97;;;20.30;99.90;;;;;;5100391;28;20027;-74
2021/06/29 08:07:50;;;;;;;81.53;42.50;;;20.30;99.90;;;;;;5105480;28;20047;-74
2021/06/29 08:10:17;;;;;;;84.30;39.42;;;20.30;99.90;;;;;;5091959;28;20042;-74
2021/06/29 08:12:42;;;;;;;73.57;38.92;;;20.20;99.90;;;;;;5101058;28;20039;-75
2021/06/29 08:15:09;;;;;;;84.00;43.58;;;20.30;99.90;;;;;;5090216;28;20064;-73
2021/06/29 08:17:35;;;;;;;78.88;42.65;;;20.40;99.90;;;;;;5098917;28;20036;-74
2021/06/29 08:20:01;;;;;;;81.72;41.08;;;20.30;99.90;;;;;;5094935;28;20226;-74
2021/06/29 08:22:26;;;;;;;90.03;43.03;;;20.40;99.90;;;;;;5099064;28;20024;-74
2021/06/29 08:24:52;;;;;;;84.35;43.60;;;20.50;99.90;;;;;;5102003;28;20730;-75
2021/06/29 08:27:18;;;;;;;85.78;44.55;;;20.60;99.90;;;;;;5102620;28;20039;-74
2021/06/29 08:29:45;;;;;;;81.88;41.30;;;20.70;99.90;;;;;;5098614;28;20071;-70
2021/06/29 08:32:11;;;;;;;76.15;43.72;;;20.80;99.90;;;;;;5078488;28;20039;-72
2021/06/29 08:34:37;;;;;;;84.35;44.80;;;20.90;99.90;;;;;;5088861;28;20083;-72
2021/06/29 08:37:03;;;;;;;93.47;45.08;;;20.90;99.90;;;;;;5093076;28;20639;-74
2021/06/29 08:39:29;;;;;;;95.80;45.90;;;21.10;99.90;;;;;;5101161;28;20046;-75
2021/06/29 08:41:54;;;;;;;89.20;44.72;;;21.20;99.90;;;;;;5104827;28;20024;-74
2021/06/29 08:44:20;;;;;;;84.00;44.10;;;21.30;99.90;;;;;;5106250;28;20043;-74
2021/06/29 08:46:46;;;;;;;94.93;45.63;;;21.40;99.90;;;;;;5104259;28;20028;-74
2021/06/29 08:49:12;;;;;;;84.07;43.05;;;21.40;99.90;;;;;;5100668;28;20069;-74
2021/06/29 08:51:39;;;;;;;74.05;43.90;;;21.40;99.90;;;;;;5102955;28;20088;-74
2021/06/29 08:54:05;;;;;;;71.45;42.40;;;21.50;99.90;;;;;;5098706;28;20031;-75
2021/06/29 08:56:31;;;;;;;73.57;44.30;;;21.50;99.90;;;;;;5107281;28;20019;-75
2021/06/29 08:58:57;;;;;;;67.88;43.63;;;21.60;99.90;;;;;;5091618;28;20562;-75
2021/06/29 09:01:27;;;;;;;69.65;43.47;;;21.50;99.90;;;;;;5107603;28;20387;-74
2021/06/29 09:03:53;;;;;;;66.15;41.47;;;21.60;99.90;;;;;;5102560;28;20035;-74
2021/06/29 09:06:33;;;;;;;66.53;42.15;;;21.50;99.90;;;;;;5101987;28;20025;-74
2021/06/29 09:09:27;;;;;;;69.90;41.13;;;21.60;99.90;;;;;;5103582;28;20133;-74
2021/06/29 09:11:53;;;;;;;62.90;38.63;;;21.70;99.90;;;;;;5109750;28;20359;-74
2021/06/29 09:14:31;;;;;;;76.75;40.72;;;21.80;99.90;;;;;;5112053;28;20035;-76
2021/06/29 09:17:19;;;;;;;61.10;37.60;;;22.10;99.90;;;;;;5106399;28;20049;-75
2021/06/29 09:19:45;;;;;;;64.60;38.40;;;22.20;99.90;;;;;;5103957;28;20075;-75
2021/06/29 09:22:32;;;;;;;60.42;37.35;;;22.20;99.90;;;;;;5108551;28;20028;-75
2021/06/29 09:24:58;;;;;;;57.00;35.33;;;22.30;99.90;;;;;;5100297;28;20020;-74
2021/06/29 09:27:47;;;;;;;47.63;33.40;;;22.40;99.90;;;;;;5109519;28;20046;-74
2021/06/29 09:30:37;;;;;;;48.00;33.53;;;22.60;99.90;;;;;;5104125;28;20016;-74
2021/06/29 09:33:04;;;;;;;44.22;31.17;;;22.60;99.90;;;;;;5111601;28;20494;-74
2021/06/29 09:35:30;;;;;;;45.60;31.85;;;22.70;99.90;;;;;;5108636;28;20114;-73
2021/06/29 09:37:57;;;;;;;45.67;31.40;;;22.60;99.90;;;;;;5111186;28;20031;-72
2021/06/29 09:40:25;;;;;;;39.00;29.50;;;21.90;99.90;;;;;;5102793;28;20021;-73
2021/06/29 09:42:52;;;;;;;41.00;30.17;;;22.20;99.90;;;;;;5106829;28;20023;-73
2021/06/29 09:45:37;;;;;;;34.83;29.90;;;22.20;99.90;;;;;;5108928;28;20796;-73
2021/06/29 09:48:08;;;;;;;38.22;30.67;;;22.10;99.90;;;;;;5111344;28;20035;-73
2021/06/29 09:50:35;;;;;;;33.17;28.30;;;22.30;99.90;;;;;;5108818;28;20035;-72
2021/06/29 09:53:18;;;;;;;38.45;27.98;;;22.20;99.90;;;;;;5108986;28;20475;-73
2021/06/29 09:55:47;;;;;;;39.75;29.38;;;22.30;99.90;;;;;;5104379;28;20364;-76
2021/06/29 09:58:15;;;;;;;36.20;29.40;;;22.50;99.90;;;;;;5107900;28;20479;-74
2021/06/29 10:00:56;;;;;;;36.80;28.40;;;22.50;99.90;;;;;;5105128;28;20036;-73
2021/06/29 10:03:23;;;;;;;32.30;26.55;;;22.40;99.90;;;;;;5105928;28;20475;-72
2021/06/29 10:05:51;;;;;;;29.58;23.45;;;22.30;99.90;;;;;;5099878;28;20032;-73
2021/06/29 10:08:29;;;;;;;27.95;24.02;;;22.30;99.90;;;;;;5101554;28;20016;-73
2021/06/29 10:11:10;;;;;;;29.10;24.25;;;22.20;99.90;;;;;;5106420;28;20481;-72
2021/06/29 10:13:39;;;;;;;27.60;22.73;;;22.30;99.90;;;;;;5084838;28;20021;-68
2021/06/29 10:16:06;;;;;;;23.98;21.35;;;22.20;99.90;;;;;;5103338;28;20038;-73
2021/06/29 10:18:37;;;;;;;23.15;20.45;;;22.40;99.90;;;;;;5095745;28;20107;-73
2021/06/29 10:21:14;;;;;;;;;;;22.40;99.90;;;;;;5097863;28;20121;-73
2021/06/29 10:23:41;;;;;;;26.42;22.05;;;22.40;99.90;;;;;;5091103;28;19957;-72
2021/06/29 10:26:07;;;;;;;21.55;19.33;;;22.40;99.90;;;;;;5090949;28;20051;-73
2021/06/29 10:28:34;;;;;;;21.83;18.48;;;22.50;99.90;;;;;;5103309;28;20092;-73
2021/06/29 10:31:00;;;;;;;23.80;19.52;;;22.50;99.90;;;;;;5105479;28;20088;-72
2021/06/29 10:33:26;;;;;;;22.92;20.58;;;22.30;99.90;;;;;;5100882;28;20035;-72
2021/06/29 10:35:54;;;;;;;23.05;19.77;;;22.20;99.90;;;;;;5099272;28;20103;-74
2021/06/29 10:38:21;;;;;;;19.52;17.48;;;22.10;99.90;;;;;;5098996;28;20060;-72
2021/06/29 10:40:53;;;;;;;18.55;16.42;;;22.10;99.90;;;;;;5105503;28;20028;-71
2021/06/29 10:43:19;;;;;;;28.08;18.30;;;22.00;99.90;;;;;;5102752;28;20096;-73
2021/06/29 10:45:48;;;;;;;20.30;16.85;;;21.80;99.90;;;;;;5109647;28;20051;-71
2021/06/29 10:48:25;;;;;;;20.15;16.45;;;21.70;99.90;;;;;;5105766;28;20443;-72
2021/06/29 10:50:53;;;;;;;19.77;16.70;;;21.70;99.90;;;;;;5108973;28;20039;-72
2021/06/29 10:53:37;;;;;;;19.98;17.30;;;21.70;99.90;;;;;;5099263;28;20086;-73
2021/06/29 10:56:05;;;;;;;24.85;17.27;;;21.60;99.90;;;;;;5087421;28;20055;-72
2021/06/29 10:58:40;;;;;;;22.17;16.83;;;21.50;99.90;;;;;;5095727;28;20032;-72
2021/06/29 11:01:34;;;;;;;19.52;16.83;;;21.50;99.90;;;;;;5097038;28;20128;-71
2021/06/29 11:04:04;;;;;;;22.95;17.48;;;21.40;99.90;;;;;;5097100;28;20023;-72
2021/06/29 11:06:32;;;;;;;18.35;16.45;;;21.30;99.90;;;;;;5093761;28;20027;-72
2021/06/29 11:08:59;;;;;;;21.63;17.10;;;21.20;99.90;;;;;;5098065;28;20016;-73
2021/06/29 11:11:29;;;;;;;23.50;18.38;;;21.20;99.90;;;;;;5096733;28;20077;-72
2021/06/29 11:13:55;;;;;;;24.20;18.52;;;21.20;99.90;;;;;;5096436;28;20031;-73
2021/06/29 11:16:49;;;;;;;24.88;18.63;;;21.20;99.90;;;;;;5095203;28;20345;-73
2021/06/29 11:19:15;;;;;;;24.02;20.13;;;21.30;99.90;;;;;;5093151;28;20084;-73
2021/06/29 11:21:41;;;;;;;24.85;19.77;;;21.40;99.90;;;;;;5097074;28;20456;-73
2021/06/29 11:24:35;;;;;;;25.55;19.65;;;21.50;99.90;;;;;;5094960;28;20073;-72
2021/06/29 11:27:01;;;;;;;22.95;20.20;;;21.70;99.90;;;;;;5093724;28;20147;-73
2021/06/29 11:29:37;;;;;;;30.45;22.25;;;21.90;99.90;;;;;;5097041;28;20028;-72
2021/06/29 11:32:31;;;;;;;32.42;21.60;;;21.90;99.90;;;;;;5094745;28;20479;-72
2021/06/29 11:35:34;;;;;;;31.60;22.30;;;22.10;99.90;;;;;;5093493;28;20375;-73
2021/06/29 11:38:08;;;;;;;23.50;20.65;;;21.80;99.90;;;;;;5096745;28;20024;-74
2021/06/29 11:40:37;;;;;;;30.38;21.95;;;21.80;99.90;;;;;;5093674;28;20047;-72
2021/06/29 11:43:09;;;;;;;28.40;21.08;;;21.90;99.90;;;;;;5094036;28;20379;-73
2021/06/29 11:45:35;;;;;;;28.58;21.90;;;22.00;99.90;;;;;;5097272;28;20092;-73
2021/06/29 11:48:00;;;;;;;29.80;21.52;;;21.80;99.90;;;;;;5095445;28;20430;-72
2021/06/29 11:50:26;;;;;;;42.72;25.08;;;21.90;99.90;;;;;;5095830;28;20023;-72
2021/06/29 11:52:54;;;;;;;35.05;25.08;;;21.80;99.90;;;;;;5096449;28;20084;-73
2021/06/29 11:55:20;;;;;;;34.78;23.50;;;21.80;99.90;;;;;;5088833;28;20016;-71
2021/06/29 11:57:53;;;;;;;35.17;25.92;;;21.80;99.90;;;;;;5089202;28;20144;-71
2021/06/29 12:00:31;;;;;;;44.97;24.70;;;21.70;99.90;;;;;;5096065;28;20115;-71
2021/06/29 12:02:59;;;;;;;38.08;24.20;;;21.80;99.90;;;;;;5098256;28;20031;-73
2021/06/29 12:05:27;;;;;;;35.40;22.20;;;21.90;99.90;;;;;;5101994;28;20092;-72
2021/06/29 12:07:58;;;;;;;34.95;22.33;;;21.70;99.90;;;;;;5094005;28;20055;-72
2021/06/29 12:10:34;;;;;;;27.77;20.35;;;21.90;99.90;;;;;;5102864;28;20255;-72
2021/06/29 12:13:06;;;;;;;34.80;20.98;;;21.90;99.90;;;;;;5092336;28;20028;-71
2021/06/29 12:15:40;;;;;;;31.92;19.70;;;21.90;99.90;;;;;;5086729;28;20024;-72
2021/06/29 12:18:12;;;;;;;22.92;17.13;;;21.80;99.90;;;;;;5084018;28;20017;-72
2021/06/29 12:20:49;;;;;;;28.70;19.02;;;21.90;99.90;;;;;;5087800;28;20048;-72
2021/06/29 12:23:27;;;;;;;26.42;16.58;;;22.20;99.90;;;;;;5075744;28;20361;-74
2021/06/29 12:25:55;;;;;;;21.50;14.50;;;22.30;99.90;;;;;;5085229;28;20519;-72
2021/06/29 12:28:23;;;;;;;25.15;14.90;;;22.20;99.90;;;;;;5083078;28;20484;-72
2021/06/29 12:30:56;;;;;;;26.23;14.57;;;22.10;99.90;;;;;;5070811;28;20032;-72
2021/06/29 12:33:28;;;;;;;25.35;13.55;;;22.20;99.90;;;;;;5087845;28;20035;-70
2021/06/29 12:36:07;;;;;;;22.58;13.18;;;22.20;99.90;;;;;;5069255;28;20032;-73
2021/06/29 12:38:35;;;;;;;24.92;13.15;;;22.30;99.90;;;;;;5070223;28;20040;-73
2021/06/29 12:41:04;;;;;;;16.10;10.82;;;22.40;99.90;;;;;;5068723;28;20033;-73
2021/06/29 12:43:34;;;;;;;17.00;12.47;;;22.30;99.90;;;;;;5068368;28;20302;-73